createdAt,value
2019-01-27T00:01:08.598Z,72.25
2019-01-27T00:03:38.482Z,72.32
2019-01-27T00:06:07.629Z,72.29
2019-01-27T00:08:36.694Z,72.58
2019-01-27T00:11:05.759Z,72.63
2019-01-27T00:13:34.870Z,72.77
2019-01-27T00:16:03.931Z,72.98
2019-01-27T00:18:33.000Z,73.10
2019-01-27T00:21:02.103Z,72.88
2019-01-27T00:23:31.181Z,73.14
2019-01-27T00:26:00.248Z,73.36
2019-01-27T00:28:29.654Z,73.49
2019-01-27T00:30:58.734Z,73.46
2019-01-27T00:33:27.812Z,73.28
2019-01-27T00:35:57.249Z,73.58
2019-01-27T00:38:26.332Z,73.46
2019-01-27T00:40:55.405Z,73.66
2019-01-27T00:43:24.513Z,73.76
2019-01-27T00:45:53.588Z,73.66
2019-01-27T00:48:22.653Z,74.05
2019-01-27T00:50:51.786Z,74.21
2019-01-27T00:53:20.857Z,74.59
2019-01-27T00:55:49.934Z,74.77
2019-01-27T00:58:19.034Z,75.10
2019-01-27T01:00:48.119Z,75.08
2019-01-27T01:03:17.168Z,75.16
2019-01-27T01:05:46.274Z,75.10
2019-01-27T01:08:15.349Z,75.08
2019-01-27T01:10:44.418Z,74.84
2019-01-27T01:13:13.531Z,74.68
2019-01-27T01:15:42.599Z,74.78
2019-01-27T01:18:11.692Z,75.51
2019-01-27T01:20:40.793Z,75.73
2019-01-27T01:23:09.852Z,76.22
2019-01-27T01:25:38.924Z,76.58
2019-01-27T01:28:08.024Z,76.46
2019-01-27T01:30:37.109Z,76.32
2019-01-27T01:33:06.170Z,76.07
2019-01-27T01:35:35.305Z,75.84
2019-01-27T01:38:04.365Z,75.86
2019-01-27T01:40:33.457Z,75.59
2019-01-27T01:43:02.581Z,75.39
2019-01-27T01:45:31.646Z,75.45
2019-01-27T01:48:00.719Z,75.42
2019-01-27T01:50:29.812Z,75.61
2019-01-27T01:52:58.862Z,76.04
2019-01-27T01:55:27.940Z,76.01
2019-01-27T01:57:57.116Z,76.41
2019-01-27T02:00:26.144Z,76.60
2019-01-27T02:02:55.216Z,76.48
2019-01-27T02:05:24.354Z,76.40
2019-01-27T02:07:53.396Z,76.25
2019-01-27T02:10:22.573Z,76.35
2019-01-27T02:12:51.694Z,76.40
2019-01-27T02:15:21.566Z,76.48
2019-01-27T02:17:50.649Z,76.67
2019-01-27T02:20:19.771Z,76.46
2019-01-27T02:22:48.834Z,76.33
2019-01-27T02:25:17.904Z,76.50
2019-01-27T02:27:47.010Z,76.46
2019-01-27T02:30:16.428Z,76.38
2019-01-27T02:32:45.474Z,76.57
2019-01-27T02:35:14.576Z,76.74
2019-01-27T02:37:43.642Z,76.91
2019-01-27T02:40:12.696Z,77.08
2019-01-27T02:42:41.822Z,76.86
2019-01-27T02:45:12.765Z,77.20
2019-01-27T02:47:41.877Z,77.13
2019-01-27T02:50:11.069Z,77.05
2019-01-27T02:52:40.135Z,77.02
2019-01-27T02:55:09.194Z,76.96
2019-01-27T02:57:38.291Z,76.78
2019-01-27T03:00:08.269Z,76.77
2019-01-27T03:02:37.365Z,76.93
2019-01-27T03:05:06.527Z,77.01
2019-01-27T03:07:35.616Z,77.10
2019-01-27T03:10:04.666Z,77.31
2019-01-27T03:12:33.826Z,77.11
2019-01-27T03:15:02.883Z,77.01
2019-01-27T03:17:31.941Z,76.71
2019-01-27T03:20:01.022Z,76.49
2019-01-27T03:22:30.078Z,76.79
2019-01-27T03:24:59.154Z,76.62
2019-01-27T03:27:28.265Z,76.45
2019-01-27T03:29:57.335Z,76.27
2019-01-27T03:32:26.399Z,76.16
2019-01-27T03:34:55.501Z,76.05
2019-01-27T03:37:24.574Z,76.48
2019-01-27T03:39:53.662Z,76.48
2019-01-27T03:42:22.748Z,76.59
2019-01-27T03:44:51.823Z,76.78
2019-01-27T03:47:20.873Z,76.35
2019-01-27T03:49:50.113Z,76.64
2019-01-27T03:52:19.516Z,76.58
2019-01-27T03:54:48.519Z,76.64
2019-01-27T03:57:17.615Z,76.44
2019-01-27T03:59:46.681Z,76.47
2019-01-27T04:02:15.753Z,76.64
2019-01-27T04:04:44.885Z,76.80
2019-01-27T04:07:13.959Z,77.11
2019-01-27T04:09:43.031Z,77.41
2019-01-27T04:12:12.132Z,77.53
2019-01-27T04:14:41.203Z,77.39
2019-01-27T04:17:10.276Z,77.49
2019-01-27T04:19:39.376Z,77.87
2019-01-27T04:22:08.453Z,77.61
2019-01-27T04:24:37.871Z,77.49
2019-01-27T04:27:06.879Z,77.68
2019-01-27T04:29:35.945Z,77.73
2019-01-27T04:32:05.023Z,77.60
2019-01-27T04:34:34.122Z,77.61
2019-01-27T04:37:03.208Z,77.70
2019-01-27T04:39:32.271Z,77.82
2019-01-27T04:42:01.460Z,77.82
2019-01-27T04:44:30.532Z,78.13
2019-01-27T04:46:59.600Z,78.13
2019-01-27T04:49:28.717Z,78.19
2019-01-27T04:51:57.786Z,78.37
2019-01-27T04:54:26.847Z,78.33
2019-01-27T04:56:55.991Z,78.39
2019-01-27T04:59:25.065Z,78.41
2019-01-27T05:01:54.126Z,78.22
2019-01-27T05:04:23.221Z,78.39
2019-01-27T05:06:52.281Z,78.34
2019-01-27T05:09:22.185Z,78.21
2019-01-27T05:11:51.277Z,78.38
2019-01-27T05:14:20.340Z,78.61
2019-01-27T05:16:49.402Z,78.70
2019-01-27T05:19:18.521Z,78.71
2019-01-27T05:21:47.577Z,78.88
2019-01-27T05:24:16.646Z,78.93
2019-01-27T05:26:45.732Z,78.98
2019-01-27T05:29:14.789Z,78.98
2019-01-27T05:31:43.858Z,79.42
2019-01-27T05:34:12.939Z,79.78
2019-01-27T05:36:41.996Z,79.80
2019-01-27T05:39:11.056Z,79.77
2019-01-27T05:41:40.153Z,79.95
2019-01-27T05:44:09.490Z,79.97
2019-01-27T05:46:38.485Z,79.95
2019-01-27T05:49:07.883Z,79.89
2019-01-27T05:51:36.880Z,79.83
2019-01-27T05:54:05.944Z,79.88
2019-01-27T05:56:35.037Z,80.01
2019-01-27T05:59:04.101Z,80.04
2019-01-27T06:01:33.166Z,79.95
2019-01-27T06:04:02.270Z,79.86
2019-01-27T06:06:31.321Z,79.63
2019-01-27T06:09:00.373Z,80.01
2019-01-27T06:11:30.332Z,80.09
2019-01-27T06:13:59.382Z,80.20
2019-01-27T06:16:28.451Z,80.07
2019-01-27T06:18:57.541Z,79.94
2019-01-27T06:21:26.609Z,79.87
2019-01-27T06:23:55.659Z,79.79
2019-01-27T06:26:24.978Z,79.74
2019-01-27T06:28:54.030Z,79.81
2019-01-27T06:31:23.097Z,79.85
2019-01-27T06:33:52.190Z,79.67
2019-01-27T06:36:21.252Z,79.71
2019-01-27T06:38:50.311Z,79.71
2019-01-27T06:41:19.399Z,79.74
2019-01-27T06:43:48.468Z,79.76
2019-01-27T06:46:17.578Z,80.01
2019-01-27T06:48:46.681Z,79.85
2019-01-27T06:51:15.742Z,79.68
2019-01-27T06:53:44.797Z,79.90
2019-01-27T06:56:13.888Z,80.00
2019-01-27T07:01:28.121Z,79.92
2019-01-27T07:03:57.960Z,79.93
2019-01-27T07:06:27.027Z,79.89
2019-01-27T07:08:56.236Z,79.86
2019-01-27T07:11:25.288Z,79.88
2019-01-27T07:16:38.701Z,79.81
2019-01-27T07:19:07.782Z,79.71
2019-01-27T07:21:37.655Z,79.85
2019-01-27T07:24:07.521Z,79.83
2019-01-27T07:26:37.439Z,79.63
2019-01-27T07:29:06.504Z,79.69
2019-01-27T07:31:38.323Z,79.51
2019-01-27T07:34:12.804Z,79.52
2019-01-27T07:36:41.917Z,79.41
2019-01-27T07:39:13.800Z,79.36
2019-01-27T07:41:42.922Z,79.57
2019-01-27T07:44:11.974Z,79.67
2019-01-27T07:46:42.976Z,79.80
2019-01-27T07:49:18.003Z,79.78
2019-01-27T07:51:47.995Z,79.60
2019-01-27T07:54:21.993Z,79.88
2019-01-27T07:56:52.027Z,79.98
2019-01-27T07:59:26.166Z,80.09
2019-01-27T08:02:00.081Z,80.06
2019-01-27T08:04:29.157Z,80.22
2019-01-27T08:07:03.060Z,80.13
2019-01-27T08:09:32.942Z,80.13
2019-01-27T08:12:02.013Z,80.05
2019-01-27T08:14:32.790Z,80.04
2019-01-27T08:17:01.926Z,80.04
2019-01-27T08:22:16.779Z,80.00
2019-01-27T08:24:48.702Z,80.16
2019-01-27T08:27:19.765Z,80.15
2019-01-27T08:29:57.487Z,80.25
2019-01-27T08:32:25.662Z,80.20
2019-01-27T08:34:54.737Z,80.33
2019-01-27T08:37:29.637Z,80.26
2019-01-27T08:39:58.689Z,80.47
2019-01-27T08:42:27.758Z,80.59
2019-01-27T08:44:57.770Z,80.62
2019-01-27T08:47:26.821Z,80.53
2019-01-27T08:49:55.902Z,80.58
2019-01-27T08:52:25.008Z,80.54
2019-01-27T08:54:54.071Z,80.55
2019-01-27T08:57:23.132Z,80.38
2019-01-27T08:59:52.217Z,80.25
2019-01-27T09:02:21.273Z,80.22
2019-01-27T09:04:51.284Z,80.20
2019-01-27T09:07:22.307Z,80.27
2019-01-27T09:09:52.296Z,80.21
2019-01-27T09:12:27.386Z,80.20
2019-01-27T09:14:58.050Z,80.32
2019-01-27T09:17:29.902Z,80.55
2019-01-27T09:19:58.952Z,80.73
2019-01-27T09:22:28.828Z,80.74
2019-01-27T09:24:57.926Z,80.59
2019-01-27T09:27:26.985Z,80.48
2019-01-27T09:30:01.040Z,80.37
2019-01-27T09:32:30.105Z,80.27
2019-01-27T09:35:04.653Z,80.12
2019-01-27T09:37:35.627Z,80.11
2019-01-27T09:40:10.367Z,80.28
2019-01-27T09:42:44.933Z,80.25
2019-01-27T09:45:14.050Z,80.04
2019-01-27T09:47:48.827Z,80.08
2019-01-27T09:50:20.769Z,80.29
2019-01-27T09:52:52.786Z,80.22
2019-01-27T09:55:21.878Z,80.46
2019-01-27T09:57:53.777Z,80.48
2019-01-27T10:00:22.899Z,80.29
2019-01-27T10:02:55.739Z,80.12
2019-01-27T10:05:25.862Z,80.22
2019-01-27T10:08:00.412Z,80.23
2019-01-27T10:10:35.447Z,80.14
2019-01-27T10:13:05.513Z,80.01
2019-01-27T10:18:19.305Z,79.48
2019-01-27T10:20:52.381Z,79.30
2019-01-27T10:23:22.259Z,79.30
2019-01-27T10:25:51.350Z,79.33
2019-01-27T10:28:20.426Z,79.51
2019-01-27T10:30:49.496Z,79.69
2019-01-27T10:33:23.753Z,79.75
2019-01-27T10:35:52.802Z,79.99
2019-01-27T10:38:22.787Z,80.23
2019-01-27T10:40:51.863Z,80.23
2019-01-27T10:43:23.782Z,80.36
2019-01-27T10:45:52.867Z,80.40
2019-01-27T10:48:23.857Z,80.44
2019-01-27T10:50:57.912Z,80.53
2019-01-27T10:53:26.951Z,80.48
2019-01-27T10:55:57.865Z,80.51
2019-01-27T10:58:26.959Z,80.40
2019-01-27T11:00:57.952Z,80.55
2019-01-27T11:03:31.848Z,80.54
2019-01-27T11:06:02.828Z,80.49
2019-01-27T11:08:31.874Z,80.51
2019-01-27T11:11:01.806Z,80.61
2019-01-27T11:13:31.676Z,80.35
2019-01-27T11:16:02.566Z,80.10
2019-01-27T11:18:36.608Z,80.15
2019-01-27T11:21:05.667Z,79.98
2019-01-27T11:23:36.653Z,79.82
2019-01-27T11:26:05.800Z,79.86
2019-01-27T11:28:34.857Z,79.81
2019-01-27T11:31:07.789Z,79.73
2019-01-27T11:33:40.679Z,79.46
2019-01-27T11:36:15.306Z,79.46
2019-01-27T11:38:44.350Z,79.41
2019-01-27T11:41:14.205Z,79.46
2019-01-27T11:43:44.130Z,79.34
2019-01-27T11:46:17.190Z,79.44
2019-01-27T11:48:48.198Z,79.42
2019-01-27T11:51:18.402Z,79.18
2019-01-27T11:53:47.460Z,78.99
2019-01-27T11:56:16.564Z,78.95
2019-01-27T11:58:45.620Z,78.96
2019-01-27T12:01:14.670Z,79.00
2019-01-27T12:03:43.815Z,79.02
2019-01-27T12:06:12.881Z,78.97
2019-01-27T12:08:41.937Z,78.61
2019-01-27T12:11:11.023Z,78.56
2019-01-27T12:13:40.073Z,78.32
2019-01-27T12:16:09.955Z,78.20
2019-01-27T12:18:39.032Z,78.08
2019-01-27T12:21:08.096Z,77.89
2019-01-27T12:23:37.210Z,77.86
2019-01-27T12:26:06.336Z,77.74
2019-01-27T12:28:35.390Z,77.66
2019-01-27T12:31:04.445Z,77.60
2019-01-27T12:33:33.519Z,77.58
2019-01-27T12:36:02.566Z,77.55
2019-01-27T12:38:31.622Z,77.54
2019-01-27T12:41:00.805Z,77.66
2019-01-27T12:43:29.855Z,77.51
2019-01-27T12:45:58.924Z,77.73
2019-01-27T12:48:28.045Z,77.73
2019-01-27T12:50:57.110Z,77.72
2019-01-27T12:53:26.165Z,77.71
2019-01-27T12:55:55.250Z,77.79
2019-01-27T12:58:24.304Z,77.93
2019-01-27T13:00:53.394Z,77.93
2019-01-27T13:03:22.484Z,78.07
2019-01-27T13:05:51.545Z,78.40
2019-01-27T13:08:20.606Z,78.49
2019-01-27T13:10:49.743Z,78.64
2019-01-27T13:13:18.807Z,78.53
2019-01-27T13:15:47.863Z,78.54
2019-01-27T13:18:16.945Z,78.46
2019-01-27T13:21:02.284Z,78.30
2019-01-27T13:23:31.939Z,77.88
2019-01-27T13:26:01.001Z,77.58
2019-01-27T13:28:30.062Z,77.41
2019-01-27T13:30:59.187Z,77.19
2019-01-27T13:33:28.232Z,77.23
2019-01-27T13:35:57.282Z,77.27
2019-01-27T13:38:26.374Z,77.32
2019-01-27T13:40:55.476Z,77.02
2019-01-27T13:43:24.467Z,76.95
2019-01-27T13:45:53.545Z,76.88
2019-01-27T13:48:22.619Z,77.23
2019-01-27T13:50:51.668Z,77.24
2019-01-27T13:53:20.759Z,77.53
2019-01-27T13:55:49.815Z,78.13
2019-01-27T13:58:18.877Z,78.24
2019-01-27T14:00:47.953Z,78.13
2019-01-27T14:03:17.009Z,78.34
2019-01-27T14:05:46.058Z,78.27
2019-01-27T14:08:15.135Z,78.13
2019-01-27T14:10:44.189Z,78.13
2019-01-27T14:13:13.249Z,78.02
2019-01-27T14:15:42.585Z,78.41
2019-01-27T14:18:11.640Z,78.79
2019-01-27T14:20:40.695Z,79.07
2019-01-27T14:23:09.774Z,78.95
2019-01-27T14:25:38.836Z,78.66
2019-01-27T14:28:07.891Z,78.46
2019-01-27T14:30:37.800Z,78.42
2019-01-27T14:33:06.870Z,78.85
2019-01-27T14:35:35.930Z,79.30
2019-01-27T14:38:05.032Z,79.62
2019-01-27T14:40:34.096Z,79.42
2019-01-27T14:43:03.154Z,79.35
2019-01-27T14:45:32.251Z,79.35
2019-01-27T14:48:01.280Z,79.64
2019-01-27T14:50:30.358Z,79.46
2019-01-27T14:52:59.439Z,79.49
2019-01-27T14:55:28.497Z,79.71
2019-01-27T14:57:57.887Z,79.54
2019-01-27T15:00:26.662Z,79.80
2019-01-27T15:02:55.716Z,80.30
2019-01-27T15:05:24.778Z,80.23
2019-01-27T15:07:53.870Z,79.85
2019-01-27T15:10:22.945Z,79.74
2019-01-27T15:12:52.006Z,79.77
2019-01-27T15:15:21.128Z,80.25
2019-01-27T15:17:50.145Z,80.12
2019-01-27T15:20:25.880Z,80.42
2019-01-27T15:22:54.934Z,80.48
2019-01-27T15:25:23.989Z,80.22
2019-01-27T15:27:53.069Z,80.37
2019-01-27T15:30:25.060Z,80.62
2019-01-27T15:32:54.153Z,80.78
2019-01-27T15:35:23.193Z,80.71
2019-01-27T15:37:52.252Z,80.67
2019-01-27T15:40:21.368Z,80.52
2019-01-27T15:42:50.439Z,80.32
2019-01-27T15:45:19.494Z,80.69
2019-01-27T15:47:48.575Z,80.68
2019-01-27T15:50:18.455Z,80.83
2019-01-27T15:52:47.511Z,80.89
2019-01-27T15:55:16.593Z,80.80
2019-01-27T15:57:45.660Z,80.87
2019-01-27T16:00:15.518Z,80.93
2019-01-27T16:02:44.740Z,80.95
2019-01-27T16:05:13.802Z,81.01
2019-01-27T16:07:42.882Z,81.04
2019-01-27T16:10:11.972Z,80.85
2019-01-27T16:12:41.036Z,81.25
2019-01-27T16:15:10.923Z,81.44
2019-01-27T16:17:40.050Z,81.58
2019-01-27T16:20:09.113Z,81.40
2019-01-27T16:22:39.076Z,81.41
2019-01-27T16:25:08.191Z,81.30
2019-01-27T16:27:37.253Z,81.30
2019-01-27T16:30:07.139Z,81.15
2019-01-27T16:32:36.235Z,81.23
2019-01-27T16:35:05.300Z,81.22
2019-01-27T16:37:34.359Z,81.10
2019-01-27T16:40:03.469Z,80.82
2019-01-27T16:42:32.514Z,80.85
2019-01-27T16:45:01.570Z,81.11
2019-01-27T16:47:30.671Z,81.33
2019-01-27T16:49:59.788Z,81.47
2019-01-27T16:52:28.856Z,81.50
2019-01-27T16:54:57.956Z,81.63
2019-01-27T16:57:27.007Z,81.47
2019-01-27T16:59:56.061Z,81.40
2019-01-27T17:02:25.146Z,81.08
2019-01-27T17:04:54.214Z,80.68
2019-01-27T17:07:23.305Z,80.36
2019-01-27T17:09:52.511Z,80.42
2019-01-27T17:12:21.604Z,80.27
2019-01-27T17:14:50.622Z,80.28
2019-01-27T17:17:19.708Z,80.32
2019-01-27T17:19:48.779Z,80.47
2019-01-27T17:22:17.843Z,80.55
2019-01-27T17:24:46.920Z,80.60
2019-01-27T17:27:16.001Z,80.56
2019-01-27T17:29:45.059Z,80.23
2019-01-27T17:32:14.344Z,80.14
2019-01-27T17:34:43.429Z,80.61
2019-01-27T17:37:12.491Z,80.61
2019-01-27T17:39:41.598Z,80.41
2019-01-27T17:42:10.656Z,80.30
2019-01-27T17:44:39.724Z,80.44
2019-01-27T17:47:08.816Z,80.46
2019-01-27T17:49:37.871Z,80.49
2019-01-27T17:52:06.922Z,81.01
2019-01-27T17:54:36.045Z,81.01
2019-01-27T17:57:05.105Z,80.93
2019-01-27T17:59:34.162Z,80.90
2019-01-27T18:02:06.068Z,81.16
2019-01-27T18:04:35.109Z,81.18
2019-01-27T18:07:04.170Z,81.17
2019-01-27T18:09:37.283Z,81.12
2019-01-27T18:14:49.727Z,80.85
2019-01-27T18:17:18.780Z,80.73
2019-01-27T18:19:47.847Z,80.62
2019-01-27T18:22:16.946Z,80.34
2019-01-27T18:24:46.975Z,80.47
2019-01-27T18:27:16.030Z,80.51
2019-01-27T18:29:45.132Z,80.56
2019-01-27T18:32:14.206Z,80.72
2019-01-27T18:34:43.260Z,80.84
2019-01-27T18:37:12.355Z,80.73
2019-01-27T18:39:41.412Z,80.61
2019-01-27T18:42:10.503Z,80.73
2019-01-27T18:44:39.593Z,80.56
2019-01-27T18:47:08.635Z,80.75
2019-01-27T18:49:37.721Z,81.17
2019-01-27T18:52:06.814Z,81.20
2019-01-27T18:54:37.831Z,81.58
2019-01-27T18:57:06.884Z,81.71
2019-01-27T18:59:41.443Z,81.55
2019-01-27T19:02:13.169Z,81.24
2019-01-27T19:04:41.508Z,81.12
2019-01-27T19:07:13.466Z,80.92
2019-01-27T19:09:42.560Z,81.02
2019-01-27T19:12:15.786Z,81.09
2019-01-27T19:14:44.880Z,81.09
2019-01-27T19:17:19.379Z,81.08
2019-01-27T19:19:48.431Z,81.02
2019-01-27T19:22:18.419Z,81.10
2019-01-27T19:24:53.972Z,81.15
2019-01-27T19:27:24.781Z,81.15
2019-01-27T19:29:55.723Z,81.49
2019-01-27T19:32:24.783Z,81.67
2019-01-27T19:34:55.784Z,81.66
2019-01-27T19:37:28.305Z,81.43
2019-01-27T19:40:01.112Z,81.44
2019-01-27T19:42:30.256Z,81.35
2019-01-27T19:45:05.191Z,81.36
2019-01-27T19:47:35.861Z,81.44
2019-01-27T19:50:04.918Z,81.42
2019-01-27T19:52:37.943Z,81.31
2019-01-27T19:55:08.811Z,81.58
2019-01-27T19:57:43.454Z,81.48
2019-01-27T20:00:14.006Z,81.40
2019-01-27T20:02:48.588Z,81.38
2019-01-27T20:05:18.595Z,81.20
2019-01-27T20:07:47.648Z,81.13
2019-01-27T20:10:16.755Z,81.23
2019-01-27T20:12:46.660Z,80.98
2019-01-27T20:15:16.554Z,81.28
2019-01-27T20:17:48.695Z,81.49
2019-01-27T20:20:23.214Z,81.58
2019-01-27T20:22:57.783Z,81.69
2019-01-27T20:25:26.869Z,81.57
2019-01-27T20:27:56.761Z,81.53
2019-01-27T20:30:25.837Z,81.49
2019-01-27T20:32:55.865Z,81.74
2019-01-27T20:35:27.903Z,81.62
2019-01-27T20:38:00.783Z,81.14
2019-01-27T20:40:29.859Z,81.42
2019-01-27T20:42:59.733Z,81.43
2019-01-27T20:45:31.721Z,81.35
2019-01-27T20:48:06.275Z,81.25
2019-01-27T20:53:19.780Z,81.33
2019-01-27T20:55:48.834Z,81.11
2019-01-27T20:58:17.898Z,81.19
2019-01-27T21:00:46.961Z,81.12
2019-01-27T21:03:21.036Z,80.97
2019-01-27T21:05:52.926Z,81.36
2019-01-27T21:08:22.054Z,81.33
2019-01-27T21:10:52.074Z,81.61
2019-01-27T21:13:26.135Z,81.48
2019-01-27T21:15:59.151Z,81.62
2019-01-27T21:18:29.230Z,81.46
2019-01-27T21:20:58.284Z,81.74
2019-01-27T21:23:27.343Z,81.66
2019-01-27T21:25:56.449Z,81.62
2019-01-27T21:28:25.503Z,81.58
2019-01-27T21:30:54.573Z,81.68
2019-01-27T21:33:23.665Z,81.88
2019-01-27T21:35:52.720Z,82.03
2019-01-27T21:38:21.788Z,81.96
2019-01-27T21:40:50.880Z,81.91
2019-01-27T21:43:19.942Z,81.79
2019-01-27T21:45:49.852Z,81.97
2019-01-27T21:48:18.956Z,81.59
2019-01-27T21:50:48.011Z,81.65
2019-01-27T21:53:17.074Z,81.81
2019-01-27T21:55:46.201Z,81.52
2019-01-27T21:58:15.259Z,81.62
2019-01-27T22:00:44.327Z,81.67
2019-01-27T22:03:13.461Z,81.54
2019-01-27T22:05:42.526Z,81.43
2019-01-27T22:08:11.589Z,81.44
2019-01-27T22:10:40.703Z,81.61
2019-01-27T22:13:09.738Z,81.65
2019-01-27T22:15:38.788Z,81.54
2019-01-27T22:18:07.888Z,81.74
2019-01-27T22:20:36.948Z,81.81
2019-01-27T22:23:06.188Z,81.96
2019-01-27T22:25:35.120Z,81.78
2019-01-27T22:28:04.173Z,81.58
2019-01-27T22:30:33.223Z,81.56
2019-01-27T22:33:02.435Z,81.57
2019-01-27T22:35:31.486Z,81.64
2019-01-27T22:38:00.540Z,81.70
2019-01-27T22:40:29.674Z,81.57
2019-01-27T22:42:58.706Z,81.60
2019-01-27T22:45:27.760Z,81.73
2019-01-27T22:47:56.846Z,82.08
2019-01-27T22:50:25.898Z,81.93
2019-01-27T22:52:54.948Z,82.15
2019-01-27T22:55:24.047Z,81.86
2019-01-27T22:57:53.114Z,81.86
2019-01-27T23:00:23.096Z,81.55
2019-01-27T23:02:52.173Z,81.66
2019-01-27T23:05:21.328Z,81.79
2019-01-27T23:07:50.391Z,81.66
2019-01-27T23:10:19.459Z,81.58
2019-01-27T23:12:48.509Z,81.46
2019-01-27T23:15:17.554Z,81.45
2019-01-27T23:17:46.666Z,81.43
2019-01-27T23:20:15.722Z,81.60
2019-01-27T23:22:44.770Z,81.71
2019-01-27T23:25:13.856Z,81.67
2019-01-27T23:27:42.906Z,81.94
2019-01-27T23:30:11.961Z,81.89
2019-01-27T23:32:41.041Z,81.91
2019-01-27T23:35:10.097Z,81.97
2019-01-27T23:37:39.144Z,82.07
2019-01-27T23:40:08.259Z,82.42
2019-01-27T23:42:37.305Z,82.44
2019-01-27T23:45:06.364Z,82.62
2019-01-27T23:47:35.430Z,82.54
2019-01-27T23:50:04.492Z,82.65
2019-01-27T23:52:33.548Z,82.71
2019-01-27T23:55:02.630Z,82.92
2019-01-27T23:57:31.674Z,82.93
